South Bend, Indiana
Current Conditions -  °F | °C
As of 12:54 AM on Sunday 23 Nov 2014 (Local Time) from KSBN Reporting Station
Overcast Overcast  
Wind Chill: 11°   Ceiling: 2500
Heat Index: 11°   Visibility: 10mi
Dew Point:   Wind: 18mph
Humidity: 80%   Direction: 210°SSW
Pressure: 29.92"   Gusts: 22mph
Location:  41.68°N, 86.25°W
Report Text: KSBN 230554Z 21016G19KT 10SM OVC025 11/07 A2992 RMK AO2 SLP134 T01060072 10111 20083 55005
Loading
Personal Weather Stations






























Interactive Weather Map New forecast layout! Learn more

10-Day Weather Forecast

Advertisements
Track Severe Weather on mobile